ADDS METAR Data INFO
IDs: Format: Raw Decoded Include TAF

Data at: 0518 UTC 19 Jan 2018

KLOT 190455Z AUTO 21010KT 10SM CLR M03/M07 A3000 RMK AO2 T10331068
KLOT 190435Z AUTO 21009KT 10SM CLR M03/M07 A3001 RMK AO2 T10291069
KLOT 190415Z AUTO 21010KT 10SM CLR M02/M07 A3001 RMK AO2 T10251066
KLOT 190355Z AUTO 22010KT 10SM CLR M02/M06 A3001 RMK AO2 T10201064
KLOT 190335Z AUTO 21011KT 10SM CLR M02/M06 A3001 RMK AO2 T10201062
KLOT 190315Z AUTO 21010KT 10SM CLR M02/M06 A3001 RMK AO2 T10181060
KLOT 190255Z AUTO 22011KT 10SM CLR M02/M06 A3001 RMK AO2 T10171058
KLOT 190235Z AUTO 21011KT 10SM CLR M02/M06 A3000 RMK AO2 T10171056
KLOT 190215Z AUTO 21011KT 10SM CLR M02/M05 A3001 RMK AO2 T10201055
KLOT 190155Z AUTO 21012KT 10SM CLR M02/M06 A3001 RMK AO2 T10211056
KLOT 190135Z AUTO 22010KT 10SM CLR M02/M06 A3003 RMK AO2 T10211057
KLOT 190115Z AUTO 22009KT 10SM CLR M02/M05 A3003 RMK AO2 T10181055
KLOT 190055Z AUTO 21011KT 10SM CLR M02/M06 A3003 RMK AO2 T10201056
KLOT 190035Z AUTO 21010KT 10SM CLR M02/M06 A3004 RMK AO2 T10201056
KLOT 190015Z AUTO 22009KT 10SM CLR M02/M06 A3004 RMK AO2 T10181057
KLOT 182355Z AUTO 22011KT 10SM CLR M01/M06 A3003 RMK AO2 T10151056 11005 21035
KLOT 182335Z AUTO 22011KT 10SM CLR M01/M06 A3003 RMK AO2 T10121056
KLOT 182315Z AUTO 22015G19KT 10SM CLR M01/M06 A3001 RMK AO2 T10111056
KLOT 182255Z AUTO 21013KT 10SM CLR M01/M06 A3001 RMK AO2 T10121059
KLOT 182235Z AUTO 22013KT 10SM CLR M01/M06 A3002 RMK AO2 T10111060
KLOT 182215Z AUTO 22013KT 10SM CLR M01/M06 A3002 RMK AO2 T10091060
KLOT 182155Z AUTO 21013G19KT 10SM CLR M01/M06 A3001 RMK AO2 T10061060
KLOT 182135Z AUTO 22012KT 10SM CLR M01/M06 A3003 RMK AO2 T10061062
KLOT 182115Z AUTO 23012G18KT 10SM CLR 00/M07 A3003 RMK AO2 T10051066
KLOT 182055Z AUTO 23012G20KT 10SM CLR M01/M07 A3004 RMK AO2 T10081066
KLOT 182035Z AUTO 22013KT 10SM CLR M01/M07 A3004 RMK AO2 T10101067
KLOT 182015Z AUTO 22013KT 10SM CLR M01/M07 A3004 RMK AO2 T10151070
KLOT 181955Z AUTO 22014G19KT 10SM CLR M02/M07 A3005 RMK AO2 T10181073
KLOT 181935Z AUTO 22013G17KT 10SM CLR M02/M07 A3006 RMK AO2 T10201073
KLOT 181915Z AUTO 23013G16KT 10SM CLR M02/M08 A3007 RMK AO2 T10221080
KLOT 181855Z AUTO 25011G14KT 10SM CLR M03/M08 A3009 RMK AO2 T10271085
KLOT 181835Z AUTO 24011G16KT 10SM CLR M03/M08 A3009 RMK AO2 T10301084
KLOT 181815Z AUTO 24013KT 10SM CLR M03/M09 A3010 RMK AO2 T10321086
KLOT 181755Z AUTO 24016G20KT 10SM CLR M04/M09 A3011 RMK AO2 T10361091 11035 21095
KLOT 181735Z AUTO 24010KT 10SM CLR M04/M09 A3013 RMK AO2 T10391092
KLOT 181715Z AUTO 23009KT 10SM CLR M04/M09 A3013 RMK AO2 T10431093
KLOT 181655Z AUTO 22012G19KT 10SM CLR M04/M10 A3012 RMK AO2 T10441096
KLOT 181635Z AUTO 23014G17KT 10SM CLR M05/M10 A3012 RMK AO2 T10491098
KLOT 181615Z AUTO 22015KT 10SM CLR M05/M10 A3012 RMK AO2 T10551103
KLOT 181555Z AUTO 23017G22KT 10SM CLR M06/M11 A3013 RMK AO2 T10601106
KLOT 181535Z AUTO 24015G20KT 10SM CLR M06/M11 A3015 RMK AO2 T10651109
KLOT 181515Z AUTO 24013KT 10SM CLR M07/M11 A3016 RMK AO2 T10701111
KLOT 181455Z AUTO 24013G17KT 10SM CLR M07/M11 A3017 RMK AO2 T10711112
KLOT 181435Z AUTO 23011G16KT 10SM CLR M08/M11 A3016 RMK AO2 T10771115
KLOT 181415Z AUTO 22010G18KT 10SM CLR M08/M12 A3015 RMK AO2 T10801117
KLOT 181355Z AUTO 23011KT 10SM CLR M08/M12 A3016 RMK AO2 T10851119
KLOT 181335Z AUTO 24012G16KT 10SM CLR M09/M12 A3017 RMK AO2 T10881120
KLOT 181315Z AUTO 23011G19KT 10SM CLR M09/M12 A3018 RMK AO2 T10891120
KLOT 181255Z AUTO 24013G18KT 10SM CLR M09/M12 A3018 RMK AO2 T10901120
KLOT 181235Z AUTO 24013KT 10SM CLR M09/M12 A3018 RMK AO2 T10901120
KLOT 181215Z AUTO 23013KT 10SM CLR M09/M12 A3018 RMK AO2 T10921121
KLOT 181155Z AUTO 24012G16KT 10SM CLR M09/M12 A3018 RMK AO2 T10951123 11087 21098
KLOT 181135Z AUTO 24009KT 10SM CLR M09/M12 A3019 RMK AO2 T10931124
KLOT 181115Z AUTO 24009KT 10SM CLR M09/M12 A3019 RMK AO2 T10941125
KLOT 181055Z AUTO 24010KT 10SM CLR M09/M12 A3020 RMK AO2 T10951125
KLOT 181035Z AUTO 24010KT 10SM CLR M10/M13 A3019 RMK AO2 T10971126
KLOT 181015Z AUTO 24010KT 10SM CLR M09/M12 A3019 RMK AO2 T10951125
KLOT 180955Z AUTO 25011KT 10SM CLR M09/M12 A3020 RMK AO2 T10941125
KLOT 180935Z AUTO 24011KT 10SM CLR M09/M12 A3020 RMK AO2 T10951125
KLOT 180915Z AUTO 24012G16KT 10SM CLR M09/M12 A3020 RMK AO2 T10931125
KLOT 180855Z AUTO 24009KT 10SM CLR M09/M12 A3021 RMK AO2 T10941125
KLOT 180835Z AUTO 24011KT 10SM CLR M09/M12 A3021 RMK AO2 T10931125
KLOT 180815Z AUTO 24013G17KT 10SM CLR M09/M12 A3021 RMK AO2 T10941125
KLOT 180755Z AUTO 24010KT 10SM CLR M09/M12 A3022 RMK AO2 T10951125
KLOT 180735Z AUTO 24011KT 10SM CLR M09/M12 A3022 RMK AO2 T10941125
KLOT 180715Z AUTO 24012KT 10SM CLR M09/M12 A3022 RMK AO2 T10921125
KLOT 180655Z AUTO 24011G16KT 10SM CLR M09/M12 A3023 RMK AO2 T10911124
KLOT 180635Z AUTO 24012KT 10SM CLR M09/M12 A3023 RMK AO2 T10891123
KLOT 180615Z AUTO 24014G17KT 10SM CLR M09/M12 A3023 RMK AO2 T10881122
KLOT 180555Z AUTO 24014G19KT 10SM CLR M09/M12 A3024 RMK AO2 T10881122 11086 21097 410761193
KLOT 180535Z AUTO 24012KT 10SM CLR M09/M12 A3025 RMK AO2 T10901123
KLOT 180515Z AUTO 24012G17KT 10SM CLR M09/M12 A3026 RMK AO2 T10881123
KLOT 180455Z AUTO 23012G19KT 10SM CLR M09/M12 A3027 RMK AO2 T10871123
KLOT 180435Z AUTO 24012G18KT 10SM CLR M09/M12 A3028 RMK AO2 T10881122
KLOT 180415Z AUTO 25014G19KT 10SM CLR M09/M12 A3029 RMK AO2 T10861121
KLOT 180355Z AUTO 24015G21KT 10SM CLR M09/M12 A3028 RMK AO2 T10881122
KLOT 180335Z AUTO 24013G18KT 10SM CLR M09/M12 A3029 RMK AO2 T10901122
KLOT 180315Z AUTO 24013KT 10SM CLR M09/M12 A3029 RMK AO2 T10881121
KLOT 180255Z AUTO 23013KT 10SM CLR M09/M12 A3030 RMK AO2 T10901120
KLOT 180235Z AUTO 23013KT 10SM CLR M09/M12 A3031 RMK AO2 T10901120
KLOT 180215Z AUTO 23012KT 10SM CLR M09/M12 A3033 RMK AO2 T10901120
KLOT 180155Z AUTO 23011KT 10SM CLR M09/M12 A3033 RMK AO2 T10921121
KLOT 180135Z AUTO 23013KT 10SM CLR M09/M12 A3034 RMK AO2 T10951125
KLOT 180115Z AUTO 22013KT 10SM CLR M10/M13 A3035 RMK AO2 T10971126
KLOT 180055Z AUTO 22013G18KT 10SM CLR M09/M13 A3036 RMK AO2 T10951126
KLOT 180035Z AUTO 23013KT 10SM CLR M09/M12 A3037 RMK AO2 T10911122
KLOT 180015Z AUTO 22011KT 10SM CLR M09/M12 A3038 RMK AO2 T10901120
KLOT 172355Z AUTO 22012G17KT 10SM CLR M09/M12 A3038 RMK AO2 T10891120 11076 21112
KLOT 172335Z AUTO 23010KT 10SM CLR M08/M12 A3039 RMK AO2 T10851120
KLOT 172315Z AUTO 22011KT 10SM CLR M08/M12 A3039 RMK AO2 T10851120
KLOT 172255Z AUTO 22010KT 10SM CLR M08/M12 A3039 RMK AO2 T10851121
KLOT 172235Z AUTO 23010KT 10SM CLR M08/M12 A3041 RMK AO2 T10821121
KLOT 172215Z AUTO 23012KT 10SM CLR M08/M12 A3041 RMK AO2 T10761125
KLOT 172155Z AUTO 24010KT 10SM CLR M08/M12 A3042 RMK AO2 T10781123
KLOT 172135Z AUTO 24011KT 10SM CLR M08/M13 A3043 RMK AO2 T10811126
KLOT 172115Z AUTO 25010KT 10SM CLR M08/M13 A3043 RMK AO2 T10821126
KLOT 172055Z AUTO 24010KT 10SM CLR M08/M13 A3044 RMK AO2 T10821126
KLOT 172035Z AUTO 24010G14KT 10SM CLR M08/M12 A3045 RMK AO2 T10831125
KLOT 172015Z AUTO 26011KT 10SM CLR M08/M12 A3046 RMK AO2 T10821121
KLOT 171955Z AUTO 26009KT 10SM CLR M08/M12 A3047 RMK AO2 T10851122
KLOT 171935Z AUTO 25010KT 10SM CLR M09/M12 A3048 RMK AO2 T10871123
KLOT 171915Z AUTO 24011KT 10SM CLR M09/M13 A3047 RMK AO2 T10921126
KLOT 171855Z AUTO 24009KT 10SM CLR M10/M13 A3048 RMK AO2 T10971131
KLOT 171835Z AUTO 24008KT 10SM CLR M10/M13 A3049 RMK AO2 T11041135
KLOT 171815Z AUTO 24008KT 10SM CLR M11/M14 A3051 RMK AO2 T11071139
KLOT 171755Z AUTO 24008KT 10SM CLR M11/M14 A3052 RMK AO2 T11141145 11114 21193
KLOT 171735Z AUTO 24008KT 10SM CLR M12/M15 A3053 RMK AO2 T11181149